createdAt,value
2017-07-24T00:00:32.541Z,984.10
2017-07-24T00:01:29.834Z,984.03
2017-07-24T00:02:27.101Z,984.00
2017-07-24T00:03:24.405Z,984.05
2017-07-24T00:04:21.632Z,984.04
2017-07-24T00:05:18.916Z,983.97
2017-07-24T00:06:16.158Z,984.00
2017-07-24T00:07:13.444Z,983.97
2017-07-24T00:08:10.695Z,983.98
2017-07-24T00:09:07.978Z,984.01
2017-07-24T00:10:05.230Z,983.97
2017-07-24T00:11:02.493Z,983.91
2017-07-24T00:11:59.759Z,983.91
2017-07-24T00:12:57.117Z,983.88
2017-07-24T00:13:54.354Z,983.86
2017-07-24T00:14:51.768Z,983.79
2017-07-24T00:15:49.005Z,983.77
2017-07-24T00:16:46.301Z,983.83
2017-07-24T00:17:43.565Z,983.80
2017-07-24T00:18:40.908Z,983.77
2017-07-24T00:19:38.157Z,983.77
2017-07-24T00:20:35.586Z,983.63
2017-07-24T00:21:32.879Z,983.70
2017-07-24T00:22:30.142Z,983.66
2017-07-24T00:23:27.441Z,983.69
2017-07-24T00:24:24.700Z,983.60
2017-07-24T00:25:21.941Z,983.67
2017-07-24T00:26:19.231Z,983.65
2017-07-24T00:27:16.492Z,983.72
2017-07-24T00:28:13.854Z,983.67
2017-07-24T00:29:11.096Z,983.61
2017-07-24T00:30:08.373Z,983.60
2017-07-24T00:31:05.626Z,983.66
2017-07-24T00:32:02.913Z,983.60
2017-07-24T00:33:00.159Z,983.54
2017-07-24T00:33:57.449Z,983.56
2017-07-24T00:34:54.744Z,983.59
2017-07-24T00:35:52.012Z,983.50
2017-07-24T00:36:49.273Z,983.45
2017-07-24T00:37:46.557Z,983.53
2017-07-24T00:38:43.825Z,983.50
2017-07-24T00:39:41.108Z,983.43
2017-07-24T00:40:38.344Z,983.39
2017-07-24T00:41:35.658Z,983.37
2017-07-24T00:42:32.980Z,983.37
2017-07-24T00:43:30.324Z,983.41
2017-07-24T00:44:27.625Z,983.38
2017-07-24T00:45:24.946Z,983.44
2017-07-24T00:46:22.237Z,983.33
2017-07-24T00:47:19.547Z,983.39
2017-07-24T00:48:16.854Z,983.42
2017-07-24T00:49:14.205Z,983.35
2017-07-24T00:50:11.465Z,983.37
2017-07-24T00:51:08.894Z,983.40
2017-07-24T00:52:06.162Z,983.40
2017-07-24T00:53:03.500Z,983.39
2017-07-24T00:54:00.786Z,983.36
2017-07-24T00:54:58.148Z,983.34
2017-07-24T00:55:55.440Z,983.37
2017-07-24T00:56:52.782Z,983.28
2017-07-24T00:57:50.187Z,983.39
2017-07-24T00:58:47.445Z,983.26
2017-07-24T00:59:44.745Z,983.26
2017-07-24T01:00:42.052Z,983.21
2017-07-24T01:01:39.377Z,983.37
2017-07-24T01:02:36.730Z,983.28
2017-07-24T01:03:34.022Z,983.35
2017-07-24T01:04:31.450Z,983.29
2017-07-24T01:05:28.756Z,983.23
2017-07-24T01:06:26.301Z,983.31
2017-07-24T01:07:23.586Z,983.27
2017-07-24T01:08:20.905Z,983.24
2017-07-24T01:09:18.211Z,983.23
2017-07-24T01:10:15.575Z,983.20
2017-07-24T01:11:12.841Z,983.14
2017-07-24T01:12:10.259Z,983.14
2017-07-24T01:13:07.569Z,983.18
2017-07-24T01:14:04.984Z,983.14
2017-07-24T01:15:02.289Z,983.09
2017-07-24T01:15:59.640Z,983.01
2017-07-24T01:16:56.957Z,983.08
2017-07-24T01:17:54.465Z,983.06
2017-07-24T01:18:51.756Z,983.09
2017-07-24T01:19:49.041Z,983.14
2017-07-24T01:20:46.279Z,983.07
2017-07-24T01:21:43.590Z,983.08
2017-07-24T01:22:40.858Z,983.11
2017-07-24T01:23:38.194Z,983.07
2017-07-24T01:24:35.484Z,983.05
2017-07-24T01:25:32.833Z,983.04
2017-07-24T01:26:30.116Z,982.94
2017-07-24T01:27:27.394Z,982.97
2017-07-24T01:28:24.758Z,983.07
2017-07-24T01:29:22.207Z,983.07
2017-07-24T01:30:19.503Z,982.98
2017-07-24T01:31:16.875Z,982.94
2017-07-24T01:32:14.205Z,982.83
2017-07-24T01:33:11.554Z,982.88
2017-07-24T01:34:08.840Z,982.96
2017-07-24T01:35:06.164Z,982.87
2017-07-24T01:36:03.417Z,982.79
2017-07-24T01:37:00.722Z,982.82
2017-07-24T01:37:58.118Z,982.88
2017-07-24T01:38:55.484Z,982.89
2017-07-24T01:39:52.792Z,982.83
2017-07-24T01:40:50.103Z,982.82
2017-07-24T01:41:47.468Z,982.90
2017-07-24T01:42:44.736Z,982.78
2017-07-24T01:43:42.013Z,982.77
2017-07-24T01:44:39.370Z,982.76
2017-07-24T01:45:36.641Z,982.74
2017-07-24T01:46:33.929Z,982.61
2017-07-24T01:47:31.206Z,982.67
2017-07-24T01:48:28.466Z,982.71
2017-07-24T01:49:25.741Z,982.68
2017-07-24T01:50:23.049Z,982.69
2017-07-24T01:51:20.316Z,982.68
2017-07-24T01:52:17.608Z,982.66
2017-07-24T01:53:14.858Z,982.71
2017-07-24T01:54:12.204Z,982.61
2017-07-24T01:55:09.468Z,982.59
2017-07-24T01:56:06.765Z,982.60
2017-07-24T01:57:04.027Z,982.67
2017-07-24T01:58:01.325Z,982.58
2017-07-24T01:58:58.616Z,982.63
2017-07-24T01:59:55.925Z,982.59
2017-07-24T02:00:53.214Z,982.56
2017-07-24T02:01:50.508Z,982.58
2017-07-24T02:02:47.752Z,982.56
2017-07-24T02:03:45.033Z,982.56
2017-07-24T02:04:42.335Z,982.57
2017-07-24T02:05:39.601Z,982.53
2017-07-24T02:06:36.888Z,982.53
2017-07-24T02:07:34.165Z,982.51
2017-07-24T02:08:31.453Z,982.48
2017-07-24T02:09:28.779Z,982.60
2017-07-24T02:10:26.051Z,982.55
2017-07-24T02:11:23.329Z,982.59
2017-07-24T02:12:20.607Z,982.39
2017-07-24T02:13:17.989Z,982.53
2017-07-24T02:14:15.290Z,982.54
2017-07-24T02:15:12.617Z,982.49
2017-07-24T02:16:09.878Z,982.45
2017-07-24T02:17:07.162Z,982.54
2017-07-24T02:18:04.429Z,982.45
2017-07-24T02:19:01.718Z,982.35
2017-07-24T02:19:59.027Z,982.34
2017-07-24T02:20:56.304Z,982.37
2017-07-24T02:21:53.565Z,982.31
2017-07-24T02:22:50.844Z,982.36
2017-07-24T02:23:48.092Z,982.31
2017-07-24T02:24:45.406Z,982.34
2017-07-24T02:25:42.664Z,982.29
2017-07-24T02:26:39.947Z,982.30
2017-07-24T02:27:37.205Z,982.28
2017-07-24T02:28:34.492Z,982.30
2017-07-24T02:29:31.760Z,982.38
2017-07-24T02:30:29.070Z,982.36
2017-07-24T02:31:26.317Z,982.29
2017-07-24T02:32:23.601Z,982.36
2017-07-24T02:33:20.864Z,982.23
2017-07-24T02:34:18.168Z,982.20
2017-07-24T02:35:15.813Z,982.24
2017-07-24T02:36:13.097Z,982.34
2017-07-24T02:37:10.369Z,982.27
2017-07-24T02:38:07.739Z,982.18
2017-07-24T02:39:05.001Z,982.15
2017-07-24T02:40:02.307Z,982.13
2017-07-24T02:40:59.566Z,982.21
2017-07-24T02:41:56.972Z,982.14
2017-07-24T02:42:54.257Z,982.23
2017-07-24T02:43:51.602Z,982.18
2017-07-24T02:44:48.865Z,982.16
2017-07-24T02:45:46.172Z,982.21
2017-07-24T02:46:43.435Z,982.15
2017-07-24T02:47:40.736Z,982.24
2017-07-24T02:48:37.989Z,982.21
2017-07-24T02:49:35.296Z,982.16
2017-07-24T02:50:32.619Z,982.18
2017-07-24T02:51:29.901Z,982.14
2017-07-24T02:52:27.165Z,982.14
2017-07-24T02:53:24.454Z,982.25
2017-07-24T02:54:21.706Z,982.14
2017-07-24T02:55:19.065Z,982.12
2017-07-24T02:56:16.317Z,982.17
2017-07-24T02:57:13.658Z,982.12
2017-07-24T02:58:10.964Z,982.17
2017-07-24T02:59:08.249Z,982.11
2017-07-24T03:00:05.538Z,982.02
2017-07-24T03:01:02.842Z,982.06
2017-07-24T03:02:00.123Z,982.01
2017-07-24T03:02:57.423Z,982.00
2017-07-24T03:03:54.672Z,982.09
2017-07-24T03:04:52.059Z,982.02
2017-07-24T03:05:49.337Z,982.02
2017-07-24T03:06:46.649Z,981.99
2017-07-24T03:07:43.908Z,981.96
2017-07-24T03:08:41.190Z,981.98
2017-07-24T03:09:38.453Z,981.84
2017-07-24T03:10:36.160Z,981.83
2017-07-24T03:11:33.426Z,981.93
2017-07-24T03:12:30.733Z,981.87
2017-07-24T03:13:27.993Z,981.83
2017-07-24T03:14:25.296Z,981.81
2017-07-24T03:15:22.546Z,981.85
2017-07-24T03:16:19.971Z,981.77
2017-07-24T03:17:17.281Z,981.77
2017-07-24T03:18:14.581Z,981.72
2017-07-24T03:19:11.836Z,981.84
2017-07-24T03:20:09.120Z,981.78
2017-07-24T03:21:06.372Z,981.75
2017-07-24T03:22:03.681Z,981.73
2017-07-24T03:23:00.931Z,981.79
2017-07-24T03:23:58.559Z,981.78
2017-07-24T03:24:55.830Z,981.70
2017-07-24T03:25:53.500Z,981.72
2017-07-24T03:26:50.778Z,981.70
2017-07-24T03:27:48.071Z,981.70
2017-07-24T03:28:45.316Z,981.66
2017-07-24T03:29:42.610Z,981.61
2017-07-24T03:30:39.856Z,981.59
2017-07-24T03:31:37.145Z,981.65
2017-07-24T03:32:34.473Z,981.69
2017-07-24T03:33:31.749Z,981.60
2017-07-24T03:34:29.012Z,981.52
2017-07-24T03:35:26.313Z,981.56
2017-07-24T03:36:23.581Z,981.52
2017-07-24T03:37:20.901Z,981.52
2017-07-24T03:38:18.142Z,981.52
2017-07-24T03:39:15.448Z,981.50
2017-07-24T03:40:12.749Z,981.56
2017-07-24T03:41:10.029Z,981.59
2017-07-24T03:42:07.325Z,981.52
2017-07-24T03:43:04.721Z,981.65
2017-07-24T03:44:01.960Z,981.51
2017-07-24T03:44:59.249Z,981.50
2017-07-24T03:45:56.528Z,981.50
2017-07-24T03:46:53.805Z,981.49
2017-07-24T03:47:51.113Z,981.52
2017-07-24T03:48:48.537Z,981.47
2017-07-24T03:49:45.836Z,981.54
2017-07-24T03:50:43.124Z,981.47
2017-07-24T03:51:40.384Z,981.46
2017-07-24T03:52:37.703Z,981.46
2017-07-24T03:53:34.960Z,981.45
2017-07-24T03:54:32.232Z,981.47
2017-07-24T03:55:29.533Z,981.44
2017-07-24T03:56:26.837Z,981.42
2017-07-24T03:57:24.084Z,981.41
2017-07-24T03:58:21.456Z,981.46
2017-07-24T03:59:18.731Z,981.43
2017-07-24T04:00:16.041Z,981.41
2017-07-24T04:01:13.349Z,981.39
2017-07-24T04:02:10.632Z,981.41
2017-07-24T04:03:07.909Z,981.35
2017-07-24T04:04:05.213Z,981.31
2017-07-24T04:05:02.555Z,981.36
2017-07-24T04:05:59.898Z,981.36
2017-07-24T04:06:57.165Z,981.41
2017-07-24T04:07:54.492Z,981.38
2017-07-24T04:08:51.808Z,981.32
2017-07-24T04:09:49.125Z,981.32
2017-07-24T04:10:46.472Z,981.39
2017-07-24T04:11:43.737Z,981.35
2017-07-24T04:12:41.012Z,981.30
2017-07-24T04:13:38.313Z,981.39
2017-07-24T04:14:35.555Z,981.45
2017-07-24T04:15:32.989Z,981.46
2017-07-24T04:16:30.290Z,981.46
2017-07-24T04:17:27.574Z,981.39
2017-07-24T04:18:24.829Z,981.42
2017-07-24T04:19:22.101Z,981.36
2017-07-24T04:20:19.364Z,981.42
2017-07-24T04:21:16.658Z,981.43
2017-07-24T04:22:13.941Z,981.44
2017-07-24T04:23:11.227Z,981.43
2017-07-24T04:24:08.509Z,981.39
2017-07-24T04:25:05.818Z,981.41
2017-07-24T04:26:03.124Z,981.41
2017-07-24T04:27:00.543Z,981.42
2017-07-24T04:27:57.816Z,981.41
2017-07-24T04:28:55.101Z,981.44
2017-07-24T04:29:52.334Z,981.36
2017-07-24T04:30:49.631Z,981.42
2017-07-24T04:31:46.900Z,981.39
2017-07-24T04:32:44.181Z,981.39
2017-07-24T04:33:41.456Z,981.34
2017-07-24T04:34:38.778Z,981.42
2017-07-24T04:35:36.044Z,981.44
2017-07-24T04:36:33.376Z,981.42
2017-07-24T04:37:30.654Z,981.43
2017-07-24T04:38:27.988Z,981.38
2017-07-24T04:39:25.258Z,981.39
2017-07-24T04:40:22.525Z,981.33
2017-07-24T04:41:19.804Z,981.38
2017-07-24T04:42:17.122Z,981.33
2017-07-24T04:43:14.369Z,981.33
2017-07-24T04:44:11.708Z,981.32
2017-07-24T04:45:09.017Z,981.36
2017-07-24T04:46:06.329Z,981.37
2017-07-24T04:47:03.606Z,981.35
2017-07-24T04:48:00.910Z,981.32
2017-07-24T04:48:58.280Z,981.34
2017-07-24T04:49:55.601Z,981.27
2017-07-24T04:50:52.893Z,981.32
2017-07-24T04:51:50.188Z,981.31
2017-07-24T04:52:47.523Z,981.29
2017-07-24T04:53:44.797Z,981.35
2017-07-24T04:54:42.081Z,981.28
2017-07-24T04:55:39.363Z,981.26
2017-07-24T04:56:36.655Z,981.32
2017-07-24T04:57:33.938Z,981.26
2017-07-24T04:58:31.268Z,981.33
2017-07-24T04:59:28.575Z,981.27
2017-07-24T05:00:25.859Z,981.32
2017-07-24T05:01:23.276Z,981.29
2017-07-24T05:02:20.550Z,981.26
2017-07-24T05:03:17.847Z,981.24
2017-07-24T05:04:15.112Z,981.25
2017-07-24T05:05:12.420Z,981.23
2017-07-24T05:06:09.677Z,981.17
2017-07-24T05:07:06.953Z,981.19
2017-07-24T05:08:04.233Z,981.20
2017-07-24T05:09:01.532Z,981.17
2017-07-24T05:09:58.857Z,981.22
2017-07-24T05:10:56.153Z,981.15
2017-07-24T05:11:53.417Z,981.16
2017-07-24T05:12:50.746Z,981.19
2017-07-24T05:13:48.036Z,981.17
2017-07-24T05:14:45.321Z,981.19
2017-07-24T05:15:42.580Z,981.17
2017-07-24T05:16:39.888Z,981.15
2017-07-24T05:17:37.132Z,981.19
2017-07-24T05:18:34.426Z,981.21
2017-07-24T05:19:31.666Z,981.19
2017-07-24T05:20:28.965Z,981.21
2017-07-24T05:21:26.233Z,981.17
2017-07-24T05:22:23.526Z,981.18
2017-07-24T05:23:20.768Z,981.12
2017-07-24T05:24:18.052Z,981.11
2017-07-24T05:25:15.324Z,981.14
2017-07-24T05:26:12.640Z,981.08
2017-07-24T05:27:09.897Z,981.10
2017-07-24T05:28:07.268Z,981.09
2017-07-24T05:29:04.525Z,981.08
2017-07-24T05:30:01.803Z,981.00
2017-07-24T05:30:59.080Z,981.07
2017-07-24T05:31:56.350Z,981.03
2017-07-24T05:32:53.608Z,981.02
2017-07-24T05:33:50.913Z,981.01
2017-07-24T05:34:48.153Z,981.01
2017-07-24T05:35:45.494Z,981.09
2017-07-24T05:36:42.738Z,981.07
2017-07-24T05:37:40.009Z,981.09
2017-07-24T05:38:37.269Z,981.08
2017-07-24T05:39:34.562Z,981.12
2017-07-24T05:40:31.837Z,981.08
2017-07-24T05:41:29.165Z,981.06
2017-07-24T05:42:26.648Z,981.15
2017-07-24T05:43:24.232Z,981.08
2017-07-24T05:44:21.525Z,981.14
2017-07-24T05:45:18.834Z,981.07
2017-07-24T05:46:16.092Z,981.11
2017-07-24T05:47:13.381Z,981.08
2017-07-24T05:48:10.660Z,981.02
2017-07-24T05:49:07.937Z,981.07
2017-07-24T05:50:05.216Z,980.98
2017-07-24T05:51:02.504Z,980.99
2017-07-24T05:51:59.814Z,981.05
2017-07-24T05:52:57.103Z,981.09
2017-07-24T05:53:54.452Z,981.11
2017-07-24T05:54:51.740Z,981.09
2017-07-24T05:55:48.991Z,981.08
2017-07-24T05:56:46.292Z,981.13
2017-07-24T05:57:43.619Z,981.04
2017-07-24T05:58:40.925Z,981.11
2017-07-24T05:59:38.217Z,981.05
2017-07-24T06:00:36.852Z,981.08
2017-07-24T06:01:34.144Z,981.06
2017-07-24T06:02:31.433Z,981.00
2017-07-24T06:03:28.699Z,980.95
2017-07-24T06:04:25.965Z,980.99
2017-07-24T06:05:23.244Z,980.98
2017-07-24T06:06:20.524Z,981.00
2017-07-24T06:07:17.850Z,980.97
2017-07-24T06:08:15.146Z,980.96
2017-07-24T06:09:12.417Z,980.97
2017-07-24T06:10:09.738Z,980.92
2017-07-24T06:11:07.049Z,980.92
2017-07-24T06:12:04.425Z,981.00
2017-07-24T06:13:01.712Z,980.93
2017-07-24T06:13:59.009Z,981.05
2017-07-24T06:14:56.267Z,980.97
2017-07-24T06:15:53.529Z,980.94
2017-07-24T06:16:50.811Z,980.99
2017-07-24T06:17:48.110Z,980.93
2017-07-24T06:18:45.350Z,980.98
2017-07-24T06:19:42.692Z,980.91
2017-07-24T06:20:39.941Z,980.89
2017-07-24T06:21:37.219Z,980.92
2017-07-24T06:22:34.493Z,980.98
2017-07-24T06:23:31.767Z,981.02
2017-07-24T06:24:29.036Z,981.00
2017-07-24T06:25:26.318Z,981.01
2017-07-24T06:26:23.577Z,981.02
2017-07-24T06:27:20.880Z,981.00
2017-07-24T06:28:18.137Z,981.13
2017-07-24T06:29:15.412Z,981.06
2017-07-24T06:30:12.668Z,981.06
2017-07-24T06:31:09.976Z,981.07
2017-07-24T06:32:07.254Z,981.07
2017-07-24T06:33:04.553Z,981.07
2017-07-24T06:34:01.802Z,981.07
2017-07-24T06:34:59.133Z,981.13
2017-07-24T06:35:56.375Z,981.09
2017-07-24T06:36:53.649Z,981.11
2017-07-24T06:37:50.928Z,981.07
2017-07-24T06:38:48.277Z,981.09
2017-07-24T06:39:45.616Z,981.05
2017-07-24T06:40:42.899Z,981.12
2017-07-24T06:41:40.162Z,981.08
2017-07-24T06:42:37.451Z,981.14
2017-07-24T06:43:34.716Z,981.05
2017-07-24T06:44:31.977Z,981.05
2017-07-24T06:45:29.233Z,981.16
2017-07-24T06:46:26.545Z,981.17
2017-07-24T06:47:23.819Z,981.19
2017-07-24T06:48:21.171Z,981.23
2017-07-24T06:49:18.436Z,981.35
2017-07-24T06:50:15.716Z,981.30
2017-07-24T06:51:12.967Z,981.37
2017-07-24T06:52:10.227Z,981.40
2017-07-24T06:53:07.470Z,981.29
2017-07-24T06:54:04.788Z,981.34
2017-07-24T06:55:02.033Z,981.30
2017-07-24T06:55:59.332Z,981.26
2017-07-24T06:56:56.588Z,981.29
2017-07-24T06:57:53.894Z,981.33
2017-07-24T06:58:51.193Z,981.30
2017-07-24T06:59:48.479Z,981.34
2017-07-24T07:00:45.724Z,981.36
2017-07-24T07:01:42.989Z,981.29
2017-07-24T07:02:40.261Z,981.33
2017-07-24T07:03:37.640Z,981.42
2017-07-24T07:04:34.917Z,981.35
2017-07-24T07:05:32.190Z,981.35
2017-07-24T07:06:29.444Z,981.40
2017-07-24T07:07:26.742Z,981.42
2017-07-24T07:08:24.089Z,981.44
2017-07-24T07:09:21.500Z,981.49
2017-07-24T07:10:18.743Z,981.42
2017-07-24T07:11:16.020Z,981.39
2017-07-24T07:12:13.297Z,981.39
2017-07-24T07:13:10.568Z,981.37
2017-07-24T07:14:07.884Z,981.37
2017-07-24T07:15:05.172Z,981.32
2017-07-24T07:16:02.437Z,981.34
2017-07-24T07:16:59.730Z,981.34
2017-07-24T07:17:56.990Z,981.29
2017-07-24T07:18:54.300Z,981.22
2017-07-24T07:19:51.577Z,981.30
2017-07-24T07:20:48.868Z,981.25
2017-07-24T07:21:46.112Z,981.26
2017-07-24T07:22:43.412Z,981.33
2017-07-24T07:23:40.661Z,981.30
2017-07-24T07:24:37.956Z,981.30
2017-07-24T07:25:35.216Z,981.43
2017-07-24T07:26:32.536Z,981.43
2017-07-24T07:27:29.807Z,981.42
2017-07-24T07:28:27.110Z,981.41
2017-07-24T07:29:24.392Z,981.45
2017-07-24T07:30:21.684Z,981.46
2017-07-24T07:31:18.909Z,981.49
2017-07-24T07:32:16.201Z,981.41
2017-07-24T07:33:13.467Z,981.44
2017-07-24T07:34:10.765Z,981.44
2017-07-24T07:35:08.049Z,981.38
2017-07-24T07:36:05.326Z,981.36
2017-07-24T07:37:02.560Z,981.35
2017-07-24T07:37:59.825Z,981.37
2017-07-24T07:38:57.085Z,981.44
2017-07-24T07:39:54.398Z,981.39
2017-07-24T07:40:51.658Z,981.41
2017-07-24T07:41:48.928Z,981.45
2017-07-24T07:42:46.174Z,981.42
2017-07-24T07:43:43.476Z,981.43
2017-07-24T07:44:40.758Z,981.38
2017-07-24T07:45:43.093Z,981.34
2017-07-24T07:46:45.407Z,981.27
2017-07-24T07:47:43.024Z,981.36
2017-07-24T07:48:40.289Z,981.37
2017-07-24T07:49:41.710Z,981.37
2017-07-24T07:50:39.183Z,981.34
2017-07-24T07:51:36.528Z,981.40
2017-07-24T07:52:34.085Z,981.34
2017-07-24T07:53:33.114Z,981.37
2017-07-24T07:54:30.865Z,981.33
2017-07-24T07:55:28.176Z,981.38
2017-07-24T07:56:25.608Z,981.37
2017-07-24T07:57:22.904Z,981.31
2017-07-24T07:58:20.321Z,981.34
2017-07-24T07:59:17.596Z,981.38
2017-07-24T08:00:14.938Z,981.24
2017-07-24T08:01:12.222Z,981.33
2017-07-24T08:02:09.523Z,981.29
2017-07-24T08:03:06.805Z,981.32
2017-07-24T08:04:04.158Z,981.33
2017-07-24T08:05:01.540Z,981.37
2017-07-24T08:05:58.836Z,981.34
2017-07-24T08:06:56.152Z,981.37
2017-07-24T08:07:53.479Z,981.37
2017-07-24T08:08:50.741Z,981.32
2017-07-24T08:09:48.037Z,981.29
2017-07-24T08:10:45.376Z,981.30
2017-07-24T08:11:42.674Z,981.28
2017-07-24T08:12:42.014Z,981.28
2017-07-24T08:13:39.400Z,981.27
2017-07-24T08:14:36.656Z,981.31
2017-07-24T08:15:34.081Z,981.26
2017-07-24T08:16:31.352Z,981.26
2017-07-24T08:17:28.756Z,981.29
2017-07-24T08:18:28.129Z,981.31
2017-07-24T08:19:25.409Z,981.34
2017-07-24T08:20:22.680Z,981.33
2017-07-24T08:21:19.981Z,981.35
2017-07-24T08:22:17.265Z,981.36
2017-07-24T08:23:14.567Z,981.35
2017-07-24T08:24:11.857Z,981.30
2017-07-24T08:25:09.193Z,981.31
2017-07-24T08:26:06.468Z,981.33
2017-07-24T08:27:03.744Z,981.29
2017-07-24T08:28:00.998Z,981.37
2017-07-24T08:28:58.389Z,981.38
2017-07-24T08:29:55.764Z,981.36
2017-07-24T08:30:53.148Z,981.38
2017-07-24T08:31:50.467Z,981.39
2017-07-24T08:32:47.787Z,981.35
2017-07-24T08:33:45.072Z,981.39
2017-07-24T08:34:42.487Z,981.33
2017-07-24T08:35:39.758Z,981.37
2017-07-24T08:36:37.082Z,981.36
2017-07-24T08:37:34.333Z,981.34
2017-07-24T08:38:31.636Z,981.41
2017-07-24T08:39:28.924Z,981.49
2017-07-24T08:40:26.184Z,981.38
2017-07-24T08:41:23.520Z,981.40
2017-07-24T08:42:20.797Z,981.41
2017-07-24T08:43:18.061Z,981.38
2017-07-24T08:44:15.344Z,981.30
2017-07-24T08:45:12.593Z,981.30
2017-07-24T08:46:09.886Z,981.35
2017-07-24T08:47:07.169Z,981.35
2017-07-24T08:48:04.436Z,981.30
2017-07-24T08:49:01.676Z,981.39
2017-07-24T08:49:58.948Z,981.34
2017-07-24T08:50:56.211Z,981.33
2017-07-24T08:51:54.333Z,981.35
2017-07-24T08:52:51.572Z,981.43
2017-07-24T08:53:48.817Z,981.46
2017-07-24T08:54:46.041Z,981.50
2017-07-24T08:55:43.289Z,981.54
2017-07-24T08:56:40.557Z,981.64
2017-07-24T08:57:37.843Z,981.63
2017-07-24T08:58:35.084Z,981.64
2017-07-24T08:59:32.352Z,981.63
2017-07-24T09:00:29.604Z,981.58
2017-07-24T09:01:26.942Z,981.61
2017-07-24T09:02:24.362Z,981.71
2017-07-24T09:03:21.757Z,981.60
2017-07-24T09:04:19.042Z,981.53
2017-07-24T09:05:16.301Z,981.73
2017-07-24T09:06:13.861Z,981.59
2017-07-24T09:07:11.249Z,981.62
2017-07-24T09:08:08.752Z,981.63
2017-07-24T09:09:06.188Z,981.60
2017-07-24T09:10:03.706Z,981.51
2017-07-24T09:11:01.119Z,981.51
2017-07-24T09:11:58.426Z,981.60
2017-07-24T09:12:55.779Z,981.61
2017-07-24T09:13:53.054Z,981.60
2017-07-24T09:14:50.321Z,981.51
2017-07-24T09:15:47.596Z,981.56
2017-07-24T09:16:44.980Z,981.55
2017-07-24T09:17:42.319Z,981.52
2017-07-24T09:18:39.672Z,981.54
2017-07-24T09:19:36.921Z,981.55
2017-07-24T09:20:34.210Z,981.47
2017-07-24T09:21:31.598Z,981.52
2017-07-24T09:22:28.956Z,981.53
2017-07-24T09:23:26.254Z,981.53
2017-07-24T09:24:23.578Z,981.55
2017-07-24T09:25:20.889Z,981.51
2017-07-24T09:26:18.233Z,981.50
2017-07-24T09:27:15.603Z,981.51
2017-07-24T09:28:12.926Z,981.47
2017-07-24T09:29:10.246Z,981.45
2017-07-24T09:30:07.496Z,981.48
2017-07-24T09:31:04.766Z,981.41
2017-07-24T09:32:02.053Z,981.52
2017-07-24T09:32:59.301Z,981.42
2017-07-24T09:33:56.604Z,981.43
2017-07-24T09:34:53.958Z,981.41
2017-07-24T09:35:51.315Z,981.49
2017-07-24T09:36:48.601Z,981.43
2017-07-24T09:37:45.956Z,981.48
2017-07-24T09:38:43.229Z,981.37
2017-07-24T09:39:40.508Z,981.42
2017-07-24T09:40:37.817Z,981.44
2017-07-24T09:41:35.129Z,981.46
2017-07-24T09:42:32.440Z,981.38
2017-07-24T09:43:29.749Z,981.38
2017-07-24T09:44:27.093Z,981.40
2017-07-24T09:45:24.463Z,981.38
2017-07-24T09:46:21.831Z,981.33
2017-07-24T09:47:19.342Z,981.36
2017-07-24T09:48:16.673Z,981.31
2017-07-24T09:49:13.990Z,981.30
2017-07-24T09:50:11.265Z,981.32
2017-07-24T09:51:08.573Z,981.29
2017-07-24T09:52:05.862Z,981.31
2017-07-24T09:53:03.206Z,981.28
2017-07-24T09:54:00.488Z,981.31
2017-07-24T09:54:57.913Z,981.32
2017-07-24T09:55:55.318Z,981.31
2017-07-24T09:56:52.602Z,981.29
2017-07-24T09:57:49.896Z,981.29
2017-07-24T09:58:47.239Z,981.33
2017-07-24T09:59:44.553Z,981.26
2017-07-24T10:00:41.941Z,981.28
2017-07-24T10:01:39.366Z,981.27
2017-07-24T10:02:36.723Z,981.37
2017-07-24T10:03:34.194Z,981.25
2017-07-24T10:04:31.643Z,981.27
2017-07-24T10:05:29.123Z,981.26
2017-07-24T10:06:26.668Z,981.26
2017-07-24T10:07:23.920Z,981.26
2017-07-24T10:08:21.288Z,981.31
2017-07-24T10:09:18.625Z,981.34
2017-07-24T10:10:15.960Z,981.29
2017-07-24T10:11:13.220Z,981.36
2017-07-24T10:12:10.573Z,981.37
2017-07-24T10:13:08.528Z,981.46
2017-07-24T10:14:06.445Z,981.38
2017-07-24T10:15:03.696Z,981.36
2017-07-24T10:16:00.981Z,981.37
2017-07-24T10:16:58.218Z,981.35
2017-07-24T10:17:55.502Z,981.37
2017-07-24T10:18:52.729Z,981.40
2017-07-24T10:19:50.018Z,981.30
2017-07-24T10:20:47.245Z,981.32
2017-07-24T10:21:44.530Z,981.33
2017-07-24T10:22:41.773Z,981.29
2017-07-24T10:23:39.021Z,981.38
2017-07-24T10:24:36.248Z,981.28
2017-07-24T10:25:33.513Z,981.36
2017-07-24T10:26:30.741Z,981.33
2017-07-24T10:27:27.999Z,981.28
2017-07-24T10:28:25.213Z,981.29
2017-07-24T10:29:22.511Z,981.31
2017-07-24T10:30:19.744Z,981.32
2017-07-24T10:31:17.028Z,981.23
2017-07-24T10:32:14.276Z,981.23
2017-07-24T10:33:11.554Z,981.27
2017-07-24T10:34:08.794Z,981.19
2017-07-24T10:35:06.092Z,981.14
2017-07-24T10:36:03.379Z,981.18
2017-07-24T10:37:00.683Z,981.16
2017-07-24T10:37:57.917Z,981.19
2017-07-24T10:38:55.169Z,981.19
2017-07-24T10:39:52.426Z,981.21
2017-07-24T10:40:49.726Z,981.18
2017-07-24T10:41:46.961Z,981.14
2017-07-24T10:42:44.228Z,981.11
2017-07-24T10:43:41.472Z,981.13
2017-07-24T10:44:38.761Z,981.01
2017-07-24T10:45:36.037Z,981.04
2017-07-24T10:46:33.304Z,981.05
2017-07-24T10:47:30.526Z,981.03
2017-07-24T10:48:27.820Z,981.11
2017-07-24T10:49:25.060Z,981.05
2017-07-24T10:50:22.344Z,981.03
2017-07-24T10:51:19.581Z,981.04
2017-07-24T10:52:16.840Z,981.03
2017-07-24T10:53:14.092Z,980.99
2017-07-24T10:54:11.383Z,981.08
2017-07-24T10:55:08.798Z,981.03
2017-07-24T10:56:06.049Z,981.00
2017-07-24T10:57:03.309Z,980.98
2017-07-24T10:58:00.588Z,981.03
2017-07-24T10:58:57.872Z,980.98
2017-07-24T10:59:55.138Z,980.94
2017-07-24T11:00:52.505Z,980.96
2017-07-24T11:01:49.908Z,980.94
2017-07-24T11:02:47.132Z,981.05
2017-07-24T11:03:44.412Z,981.04
2017-07-24T11:04:41.690Z,980.97
2017-07-24T11:05:38.981Z,980.97
2017-07-24T11:06:36.206Z,981.01
2017-07-24T11:07:33.507Z,980.99
2017-07-24T11:08:30.785Z,980.96
2017-07-24T11:09:28.060Z,980.94
2017-07-24T11:10:25.321Z,980.93
2017-07-24T11:11:22.658Z,980.96
2017-07-24T11:12:19.932Z,981.02
2017-07-24T11:13:17.280Z,981.03
2017-07-24T11:14:14.673Z,980.96
2017-07-24T11:15:11.956Z,980.94
2017-07-24T11:16:09.294Z,980.88
2017-07-24T11:17:06.567Z,980.93
2017-07-24T11:18:03.818Z,980.96
2017-07-24T11:19:01.083Z,980.92
2017-07-24T11:19:58.331Z,980.82
2017-07-24T11:20:55.670Z,980.90
2017-07-24T11:21:52.940Z,980.90
2017-07-24T11:22:50.202Z,980.92
2017-07-24T11:23:47.495Z,980.84
2017-07-24T11:24:44.791Z,980.92
2017-07-24T11:25:42.093Z,980.88
2017-07-24T11:26:39.418Z,980.81
2017-07-24T11:27:36.701Z,980.82
2017-07-24T11:28:34.144Z,980.82
2017-07-24T11:29:31.424Z,980.91
2017-07-24T11:30:28.705Z,980.79
2017-07-24T11:31:26.039Z,980.88
2017-07-24T11:32:23.320Z,980.98
2017-07-24T11:33:20.601Z,981.04
2017-07-24T11:34:17.862Z,981.07
2017-07-24T11:35:15.180Z,981.15
2017-07-24T11:36:12.449Z,981.18
2017-07-24T11:37:09.732Z,981.22
2017-07-24T11:38:07.001Z,981.28
2017-07-24T11:39:04.229Z,981.20
2017-07-24T11:40:01.484Z,981.29
2017-07-24T11:40:58.724Z,981.30
2017-07-24T11:41:56.008Z,981.40
2017-07-24T11:42:53.248Z,981.42
2017-07-24T11:43:51.853Z,981.47
2017-07-24T11:44:49.091Z,981.43
2017-07-24T11:45:46.424Z,981.50
2017-07-24T11:46:43.722Z,981.47
2017-07-24T11:47:41.016Z,981.49
2017-07-24T11:48:38.288Z,981.50
2017-07-24T11:49:35.558Z,981.48
2017-07-24T11:50:32.816Z,981.52
2017-07-24T11:51:30.065Z,981.49
2017-07-24T11:52:27.310Z,981.45
2017-07-24T11:53:24.569Z,981.48
2017-07-24T11:54:21.797Z,981.49
2017-07-24T11:55:19.049Z,981.44